Time;durP1;ratioP1;P1;durP2;ratioP2;P2;SDS_P1;SDS_P2;PMS_P1;PMS_P2;Temp;Humidity;BMP_temperature;BMP_pressure;BME280_temperature;BME280_humidity;BME280_pressure;Samples;Min_cycle;Max_cycle;Signal;HPM_P1;HPM_P2
2022/12/05 00:00:51;;;;;;;;;;;3.50;87.80;;;-151.14;100.00;62537.16;5112736;28;19926;-80
2022/12/05 00:03:19;;;;;;;;;;;3.50;87.90;;;-151.14;100.00;62537.16;5111730;28;20234;-80
2022/12/05 00:05:47;;;;;;;;;;;3.50;87.70;;;-151.14;100.00;62537.16;5112224;28;20097;-80
2022/12/05 00:08:15;;;;;;;;;;;3.50;87.90;;;-151.14;100.00;62537.16;5111794;28;19919;-80
2022/12/05 00:10:44;;;;;;;;;;;3.50;87.80;;;-151.14;100.00;62537.16;5094886;28;19920;-80
2022/12/05 00:13:12;;;;;;;;;;;3.50;87.70;;;-151.14;100.00;62537.16;5112879;28;19926;-80
2022/12/05 00:15:40;;;;;;;;;;;3.50;87.60;;;2.21;100.00;62537.16;5112335;28;19942;-81
2022/12/05 00:18:09;;;;;;;;;;;3.50;87.90;;;-151.14;100.00;62537.16;5112932;28;19919;-80
2022/12/05 00:20:37;;;;;;;;;;;3.50;88.00;;;-151.14;100.00;62537.16;5111334;28;19934;-80
2022/12/05 00:23:05;;;;;;;;;;;3.50;87.80;;;-151.14;100.00;62537.16;5111599;28;19920;-80
2022/12/05 00:25:33;;;;;;;;;;;3.50;87.80;;;-151.14;100.00;62537.16;5110697;28;19927;-80
2022/12/05 00:28:03;;;;;;;;;;;3.50;87.90;;;-151.14;100.00;62537.16;5112590;28;19920;-80
2022/12/05 00:30:31;;;;;;;;;;;3.50;87.90;;;18.09;100.00;62537.16;5112214;28;20119;-80
2022/12/05 00:32:59;;;;;;;;;;;3.50;87.90;;;-151.14;100.00;62537.16;5112648;28;20111;-80
2022/12/05 00:35:27;;;;;;;;;;;3.50;88.00;;;-151.14;100.00;62537.16;5128018;28;19920;-80
2022/12/05 00:37:55;;;;;;;;;;;3.50;87.90;;;-151.14;100.00;62537.16;5112609;28;19920;-80
2022/12/05 00:40:22;;;;;;;;;;;3.50;87.80;;;-151.14;100.00;62537.16;5112247;28;19927;-81
2022/12/05 00:42:50;;;;;;;;;;;3.50;87.80;;;-151.14;100.00;62537.16;5111473;28;20204;-80
2022/12/05 00:45:20;;;;;;;;;;;3.50;88.00;;;-151.14;100.00;62537.16;5110660;28;20230;-80
2022/12/05 00:47:48;;;;;;;;;;;3.50;88.00;;;-151.14;100.00;62537.16;5111405;28;19927;-80
2022/12/05 00:50:16;;;;;;;;;;;3.50;87.90;;;-151.14;100.00;62537.16;5128003;28;19919;-80
2022/12/05 00:52:43;;;;;;;;;;;3.50;87.90;;;-151.14;100.00;62537.16;5112297;28;20024;-80
2022/12/05 00:55:11;;;;;;;;;;;3.50;87.80;;;-151.14;100.00;62537.16;5092758;28;19935;-80
2022/12/05 00:57:39;;;;;;;;;;;3.50;88.00;;;-151.14;100.00;62537.16;5111245;28;19926;-80
2022/12/05 01:00:08;;;;;;;;;;;3.50;88.00;;;-151.14;100.00;62537.16;5110892;28;19926;-81
2022/12/05 01:02:38;;;;;;;;;;;3.50;88.00;;;-151.14;100.00;62537.16;5110953;28;19942;-80
2022/12/05 01:05:07;;;;;;;;;;;3.50;88.00;;;18.09;100.00;62537.16;5111317;28;19926;-80
2022/12/05 01:07:34;;;;;;;;;;;3.50;88.00;;;-151.14;100.00;62537.16;5128102;28;19920;-80
2022/12/05 01:10:03;;;;;;;;;;;3.50;87.80;;;-151.14;100.00;62537.16;5110806;28;19920;-80
2022/12/05 01:12:30;;;;;;;;;;;3.50;88.00;;;-151.14;100.00;62537.16;5112043;28;19919;-80
2022/12/05 01:14:58;;;;;;;;;;;3.50;87.90;;;-151.14;100.00;62537.16;5110700;28;19926;-81
2022/12/05 01:17:26;;;;;;;;;;;3.50;87.90;;;-151.14;100.00;62537.16;5111839;28;19920;-80
2022/12/05 01:19:55;;;;;;;;;;;3.50;87.80;;;-151.14;100.00;62537.16;5111933;28;19919;-80
2022/12/05 01:22:23;;;;;;;;;;;3.50;87.90;;;-151.14;100.00;62537.16;5110854;28;19977;-80
2022/12/05 01:24:51;;;;;;;;;;;3.50;88.00;;;-151.14;100.00;62537.16;5110012;28;19919;-80
2022/12/05 01:27:19;;;;;;;;;;;3.50;88.00;;;-151.14;100.00;62537.16;5111811;28;19926;-80
2022/12/05 01:29:47;;;;;;;;;;;3.50;87.90;;;-151.14;100.00;62537.16;5111684;28;19926;-81
2022/12/05 01:32:15;;;;;;;;;;;3.50;87.80;;;-151.14;100.00;62537.16;5111663;28;19920;-80
2022/12/05 01:34:43;;;;;;;;;;;3.50;88.00;;;-151.14;100.00;62537.16;5110856;28;19934;-80
2022/12/05 01:37:12;;;;;;;;;;;3.50;88.00;;;-151.14;100.00;62537.16;5110554;28;20203;-80
2022/12/05 01:39:40;;;;;;;;;;;3.50;87.90;;;-151.14;100.00;62537.16;5110528;28;19920;-80
2022/12/05 01:42:08;;;;;;;;;;;3.50;87.70;;;-151.14;100.00;62537.16;5111506;28;19920;-80
2022/12/05 01:45:05;;;;;;;;;;;3.50;88.10;;;-151.14;100.00;62537.16;5110394;28;19926;-81
2022/12/05 01:47:34;;;;;;;;;;;3.50;87.90;;;-151.14;100.00;62537.16;5087593;28;19920;-80
2022/12/05 01:50:02;;;;;;;;;;;3.50;87.80;;;-151.14;100.00;62537.16;5111306;28;19920;-81
2022/12/05 01:52:32;;;;;;;;;;;3.50;87.80;;;-151.14;100.00;62537.16;5110352;28;19920;-80
2022/12/05 01:55:02;;;;;;;;;;;3.50;87.80;;;-151.14;100.00;62537.16;5109853;28;19934;-80
2022/12/05 01:57:31;;;;;;;;;;;3.50;87.70;;;-151.14;100.00;62537.16;5110560;28;20089;-81
2022/12/05 02:00:00;;;;;;;;;;;3.50;87.80;;;-151.14;100.00;62537.16;5110268;28;19942;-80
2022/12/05 02:02:28;;;;;;;;;;;3.50;87.80;;;-151.14;100.00;62537.16;5111465;28;20204;-81
2022/12/05 02:05:01;;;;;;;;;;;3.50;87.90;;;-151.14;100.00;62537.16;5092575;28;19920;-80
2022/12/05 02:07:29;;;;;;;;;;;3.50;87.80;;;-151.14;100.00;62537.16;5110354;28;19926;-80
2022/12/05 02:09:59;;;;;;;;;;;3.50;88.00;;;18.10;100.00;62537.16;5111082;28;20200;-80
2022/12/05 02:12:27;;;;;;;;;;;3.50;87.80;;;-151.14;100.00;62537.16;5127015;28;19919;-80
2022/12/05 02:15:03;;;;;;;;;;;3.50;87.90;;;18.10;100.00;62537.16;5110531;28;19920;-81
2022/12/05 02:17:44;;;;;;;;;;;3.50;88.00;;;-151.14;100.00;62537.16;5110211;28;19920;-80
2022/12/05 02:20:22;;;;;;;;;;;3.50;88.00;;;-151.14;100.00;62537.16;5127015;28;19920;-81
2022/12/05 02:23:26;;;;;;;;;;;3.50;88.00;;;-151.14;100.00;62537.16;5111048;28;19926;-80
2022/12/05 02:26:25;;;;;;;;;;;3.50;88.00;;;-151.14;100.00;62537.16;5111596;28;19920;-80
2022/12/05 02:29:36;;;;;;;;;;;3.50;87.90;;;-151.14;100.00;62537.16;5090536;28;20212;-80
2022/12/05 02:32:08;;;;;;;;;;;3.50;88.00;;;-151.14;100.00;62537.16;5093073;28;19942;-80
2022/12/05 02:34:37;;;;;;;;;;;3.50;88.00;;;2.13;100.00;62537.16;5098481;28;20231;-81
2022/12/05 02:37:09;;;;;;;;;;;3.50;88.00;;;-151.14;100.00;62537.16;5114581;28;19919;-80
2022/12/05 02:39:40;;;;;;;;;;;3.50;88.00;;;-151.14;100.00;62537.16;5114409;28;19919;-80
2022/12/05 02:42:10;;;;;;;;;;;3.50;88.10;;;-151.14;100.00;62537.16;5114298;28;19920;-80
2022/12/05 02:44:39;;;;;;;;;;;3.50;88.10;;;-151.14;100.00;62537.16;5114173;28;19924;-80
2022/12/05 02:47:08;;;;;;;;;;;3.40;87.80;;;2.12;100.00;62537.16;5112892;28;19920;-80
2022/12/05 02:49:37;;;;;;;;;;;3.40;87.80;;;-151.14;100.00;62537.16;5114174;28;19981;-80
2022/12/05 02:52:08;;;;;;;;;;;3.40;87.90;;;-151.14;100.00;62537.16;5114159;28;19926;-80
2022/12/05 02:54:37;;;;;;;;;;;3.40;87.80;;;-151.14;100.00;62537.16;5112909;28;19930;-80
2022/12/05 02:57:05;;;;;;;;;;;3.40;88.00;;;-151.14;100.00;62537.16;5113082;28;19920;-80
2022/12/05 02:59:33;;;;;;;;;;;3.40;87.90;;;-151.14;100.00;62537.16;5113202;28;19926;-80
2022/12/05 03:02:01;;;;;;;;;;;3.40;88.00;;;-151.14;100.00;62537.16;5113113;28;19926;-80
2022/12/05 03:04:30;;;;;;;;;;;3.40;87.90;;;-151.14;100.00;62537.16;5112965;28;20212;-80
2022/12/05 03:06:59;;;;;;;;;;;3.40;87.80;;;-151.14;100.00;62537.16;5113413;28;19920;-80
2022/12/05 03:09:29;;;;;;;;;;;3.40;87.90;;;-151.14;100.00;62537.16;5112937;28;19920;-80
2022/12/05 03:11:59;;;;;;;;;;;3.40;87.80;;;-151.14;100.00;62537.16;5113700;28;19920;-80
2022/12/05 03:14:29;;;;;;;;;;;3.40;87.90;;;-151.14;100.00;62537.16;5113708;28;19926;-80
2022/12/05 03:16:58;;;;;;;;;;;3.40;87.90;;;-151.14;100.00;62537.16;5111296;28;19942;-80
2022/12/05 03:19:27;;;;;;;;;;;3.40;87.80;;;-151.14;100.00;62537.16;5112305;28;19920;-80
2022/12/05 03:21:59;;;;;;;;;;;3.40;87.70;;;-151.14;100.00;62537.16;5113602;28;19919;-80
2022/12/05 03:24:27;;;;;;;;;;;3.40;87.80;;;-151.14;100.00;62537.16;5112594;28;19920;-80
2022/12/05 03:26:59;;;;;;;;;;;3.40;87.60;;;-151.14;100.00;62537.16;5113460;28;19920;-80
2022/12/05 03:29:29;;;;;;;;;;;3.40;87.90;;;-151.14;100.00;62537.16;5113694;28;19920;-80
2022/12/05 03:32:03;;;;;;;;;;;3.40;88.00;;;2.11;100.00;62537.16;5112251;28;19920;-80
2022/12/05 03:34:37;;;;;;;;;;;3.40;87.90;;;-151.14;100.00;62537.16;5113454;28;20230;-80
2022/12/05 03:37:09;;;;;;;;;;;3.40;87.90;;;-151.14;100.00;62537.16;5129288;28;20089;-80
2022/12/05 03:39:38;;;;;;;;;;;3.40;87.70;;;-151.14;100.00;62537.16;5112451;28;19920;-80
2022/12/05 03:42:09;;;;;;;;;;;3.40;87.80;;;-151.14;100.00;62537.16;5095207;28;19920;-80
2022/12/05 03:44:39;;;;;;;;;;;3.40;87.80;;;-151.14;100.00;62537.16;5113359;28;19920;-80
2022/12/05 03:47:10;;;;;;;;;;;3.40;87.70;;;-151.14;100.00;62537.16;5113523;28;19920;-80
2022/12/05 03:49:40;;;;;;;;;;;3.40;87.90;;;-151.14;100.00;62537.16;5113354;28;19926;-80
2022/12/05 03:52:10;;;;;;;;;;;3.40;87.80;;;-151.14;100.00;62537.16;5113200;28;19926;-80
2022/12/05 03:54:38;;;;;;;;;;;3.40;87.80;;;;;;5112055;28;19920;-80
2022/12/05 03:57:08;;;;;;;;;;;3.40;87.80;;;-151.14;100.00;62537.16;5111745;28;19920;-80
2022/12/05 03:59:37;;;;;;;;;;;3.40;87.80;;;-151.14;100.00;62537.16;5113296;28;19920;-80
2022/12/05 04:02:08;;;;;;;;;;;3.40;87.90;;;-151.14;100.00;62537.16;5113145;28;20212;-80
2022/12/05 04:04:38;;;;;;;;;;;3.40;88.10;;;-151.14;100.00;62537.16;5113087;28;20127;-80
2022/12/05 04:07:06;;;;;;;;;;;3.40;87.90;;;-151.14;100.00;62537.16;5113033;28;19920;-80
2022/12/05 04:09:37;;;;;;;;;;;3.40;88.00;;;2.10;100.00;62537.16;5112786;28;19927;-80
2022/12/05 04:12:07;;;;;;;;;;;3.40;88.00;;;-151.14;100.00;62537.16;5111798;28;19924;-80
2022/12/05 04:14:37;;;;;;;;;;;3.40;88.10;;;-151.14;100.00;62537.16;5111129;28;19920;-80
2022/12/05 04:17:05;;;;;;;;;;;3.40;88.00;;;-151.14;100.00;62537.16;5111776;28;19920;-80
2022/12/05 04:22:18;;;;;;;;;;;3.40;88.00;;;2.08;100.00;62537.16;5112413;28;19920;-80
2022/12/05 04:27:37;;;;;;;;;;;3.40;88.00;;;-151.14;100.00;62537.16;5112720;28;19926;-80
2022/12/05 04:30:06;;;;;;;;;;;3.40;88.00;;;-151.14;100.00;62537.16;5112554;28;19926;-80
2022/12/05 04:32:38;;;;;;;;;;;3.40;88.00;;;-151.14;100.00;62537.16;5112342;28;19919;-80
2022/12/05 04:35:09;;;;;;;;;;;3.40;88.00;;;-151.14;100.00;62537.16;5112042;28;19926;-80
2022/12/05 04:37:37;;;;;;;;;;;3.40;88.00;;;-151.14;100.00;62537.16;5111332;28;19926;-80
2022/12/05 04:40:09;;;;;;;;;;;3.40;88.10;;;-151.14;100.00;62537.16;5111490;28;19919;-79
2022/12/05 04:42:37;;;;;;;;;;;3.40;88.00;;;-151.14;100.00;62537.16;5112299;28;19942;-80
2022/12/05 04:45:08;;;;;;;;;;;3.40;88.00;;;2.07;100.00;62537.16;5111938;28;19920;-80
2022/12/05 04:47:37;;;;;;;;;;;3.40;87.90;;;-151.14;100.00;62537.16;5111390;28;19926;-80
2022/12/05 04:50:06;;;;;;;;;;;3.40;87.90;;;-151.14;100.00;62537.16;5111622;28;19919;-80
2022/12/05 04:52:34;;;;;;;;;;;3.40;88.10;;;-151.14;100.00;62537.16;5128315;28;19920;-80
2022/12/05 04:55:03;;;;;;;;;;;3.40;88.10;;;-151.14;100.00;62537.16;5110669;28;19920;-80
2022/12/05 04:57:35;;;;;;;;;;;3.40;88.10;;;-151.14;100.00;62537.16;5112251;28;20113;-80
2022/12/05 05:00:04;;;;;;;;;;;3.40;88.10;;;18.09;100.00;62537.16;5110779;28;19934;-80
2022/12/05 05:02:33;;;;;;;;;;;3.40;88.20;;;-151.14;100.00;62537.16;5111106;28;19926;-80
2022/12/05 05:05:01;;;;;;;;;;;3.40;88.10;;;-151.14;100.00;62537.16;5111741;28;19934;-80
2022/12/05 05:07:29;;;;;;;;;;;3.40;88.00;;;-151.14;100.00;62537.16;5112062;28;19920;-80
2022/12/05 05:09:57;;;;;;;;;;;3.40;88.00;;;-151.14;100.00;62537.16;5112068;28;19920;-80
2022/12/05 05:12:25;;;;;;;;;;;3.40;88.00;;;-151.14;100.00;62537.16;5112106;28;20208;-80
2022/12/05 05:14:54;;;;;;;;;;;3.40;88.00;;;-151.14;100.00;62537.16;5111554;28;19920;-80
2022/12/05 05:17:22;;;;;;;;;;;3.40;88.20;;;-151.14;100.00;62537.16;5112102;28;20122;-80
2022/12/05 05:19:50;;;;;;;;;;;3.40;88.00;;;-151.14;100.00;62537.16;5110698;28;20212;-80
2022/12/05 05:22:18;;;;;;;;;;;3.40;88.10;;;-151.14;100.00;62537.16;5112004;28;19919;-80
2022/12/05 05:24:46;;;;;;;;;;;3.30;88.10;;;-151.14;100.00;62537.16;5110080;28;19926;-80
2022/12/05 05:27:14;;;;;;;;;;;3.30;88.00;;;-151.14;100.00;62537.16;5111700;28;19926;-80
2022/12/05 05:29:42;;;;;;;;;;;3.40;88.00;;;-151.14;100.00;62537.16;5110661;28;19924;-80
2022/12/05 05:32:11;;;;;;;;;;;3.40;88.10;;;-151.14;100.00;62537.16;5111449;28;20204;-79
2022/12/05 05:34:39;;;;;;;;;;;3.30;88.10;;;-151.14;100.00;62537.16;5110385;28;19919;-80
2022/12/05 05:37:07;;;;;;;;;;;3.30;88.10;;;-151.14;100.00;62537.16;5110589;28;19926;-80
2022/12/05 05:39:35;;;;;;;;;;;3.30;88.10;;;-151.14;100.00;62537.16;5110192;28;19920;-80
2022/12/05 05:42:03;;;;;;;;;;;3.30;88.10;;;2.02;100.00;62537.16;5093602;28;19920;-80
2022/12/05 05:44:31;;;;;;;;;;;3.30;88.00;;;-151.14;100.00;62537.16;5110337;28;19920;-80
2022/12/05 05:46:59;;;;;;;;;;;3.30;88.00;;;-151.14;100.00;62537.16;5110011;28;19927;-80
2022/12/05 05:49:29;;;;;;;;;;;3.30;88.10;;;-151.14;100.00;62537.16;5110432;28;19920;-80
2022/12/05 05:51:56;;;;;;;;;;;3.30;88.10;;;-151.14;100.00;62537.16;5111285;28;19926;-79
2022/12/05 05:54:24;;;;;;;;;;;3.30;88.00;;;-151.14;100.00;62537.16;5111212;28;19926;-80
2022/12/05 05:56:52;;;;;;;;;;;3.30;88.20;;;-151.14;100.00;62537.16;5110047;28;19941;-80
2022/12/05 05:59:20;;;;;;;;;;;3.30;88.10;;;-151.14;100.00;62537.16;5093382;28;20116;-80
2022/12/05 06:01:48;;;;;;;;;;;3.30;88.00;;;-151.14;100.00;62537.16;5113707;28;19923;-80
2022/12/05 06:04:16;;;;;;;;;;;3.30;88.00;;;-151.14;100.00;62537.16;5114629;28;19919;-80
2022/12/05 06:06:45;;;;;;;;;;;3.30;88.00;;;-151.14;100.00;62537.16;5113428;28;20426;-80
2022/12/05 06:09:13;;;;;;;;;;;3.30;88.00;;;-151.14;100.00;62537.16;5113815;28;20117;-80
2022/12/05 06:11:41;;;;;;;;;;;3.30;88.00;;;-151.14;100.00;62537.16;5113448;28;19927;-80
2022/12/05 06:14:09;;;;;;;;;;;3.40;87.90;;;-151.14;100.00;62537.16;5110125;28;19926;-80
2022/12/05 06:16:37;;;;;;;;;;;3.40;88.00;;;-151.14;100.00;62537.16;5093023;28;19920;-80
2022/12/05 06:19:05;;;;;;;;;;;3.40;88.00;;;-151.14;100.00;62537.16;5110458;28;19920;-80
2022/12/05 06:21:33;;;;;;;;;;;3.40;87.90;;;-151.14;100.00;62537.16;5093214;28;19920;-80
2022/12/05 06:24:02;;;;;;;;;;;3.40;87.90;;;-151.14;100.00;62537.16;5092997;28;20204;-79
2022/12/05 06:26:30;;;;;;;;;;;3.40;87.80;;;-151.14;100.00;62537.16;5092730;28;19927;-80
2022/12/05 06:28:58;;;;;;;;;;;3.40;87.70;;;-151.14;100.00;62537.16;5103134;28;20208;-80
2022/12/05 06:31:29;;;;;;;;;;;3.40;87.60;;;-151.14;100.00;62537.16;5096082;28;20212;-80
2022/12/05 06:34:00;;;;;;;;;;;3.40;87.70;;;-151.14;100.00;62537.16;5113300;28;19920;-80
2022/12/05 06:36:28;;;;;;;;;;;3.40;87.60;;;-151.14;100.00;62537.16;5113126;28;20212;-80
2022/12/05 06:38:56;;;;;;;;;;;3.50;87.50;;;-151.14;100.00;62537.16;5113335;28;19927;-80
2022/12/05 06:41:26;;;;;;;;;;;3.50;87.50;;;-151.14;100.00;62537.16;5113179;28;19926;-80
2022/12/05 06:43:55;;;;;;;;;;;3.50;87.60;;;2.18;100.00;62537.16;5112825;28;19934;-80
2022/12/05 06:46:24;;;;;;;;;;;3.50;87.50;;;2.20;100.00;62537.16;5112593;28;19926;-80
2022/12/05 06:48:52;;;;;;;;;;;3.50;87.40;;;2.23;100.00;62537.16;5113220;28;20216;-80
2022/12/05 06:51:20;;;;;;;;;;;3.60;87.30;;;-151.14;100.00;62537.16;5114028;28;20128;-80
2022/12/05 06:53:48;;;;;;;;;;;3.60;87.20;;;-151.14;100.00;62537.16;5113927;28;19942;-80
2022/12/05 06:56:18;;;;;;;;;;;3.60;87.10;;;2.28;100.00;62537.16;5112431;28;20208;-80
2022/12/05 06:58:48;;;;;;;;;;;3.60;86.90;;;2.28;100.00;62537.16;5112868;28;20211;-80
2022/12/05 07:04:02;;;;;;;;;;;3.60;86.70;;;-151.14;100.00;62537.16;5113865;28;19926;-80
2022/12/05 07:06:30;;;;;;;;;;;3.60;87.40;;;2.29;100.00;62537.16;5129548;28;20246;-79
2022/12/05 07:08:58;;;;;;;;;;;3.60;86.60;;;-151.14;100.00;62537.16;5114019;28;19920;-80
2022/12/05 07:11:26;;;;;;;;;;;3.60;86.60;;;-151.14;100.00;62537.16;5111961;28;19920;-80
2022/12/05 07:13:55;;;;;;;;;;;3.60;86.60;;;-151.14;100.00;62537.16;5113687;28;19920;-80
2022/12/05 07:16:23;;;;;;;;;;;3.60;86.60;;;-151.14;100.00;62537.16;5113657;28;19924;-80
2022/12/05 07:18:51;;;;;;;;;;;3.60;86.50;;;-151.14;100.00;62537.16;5113857;28;19920;-79
2022/12/05 07:21:20;;;;;;;;;;;3.60;86.50;;;2.29;100.00;62537.16;5113686;28;19920;-80
2022/12/05 07:23:49;;;;;;;;;;;3.60;86.60;;;-151.14;100.00;62537.16;5112149;28;20119;-79
2022/12/05 07:26:19;;;;;;;;;;;3.60;86.60;;;-151.14;100.00;62537.16;5113449;28;19920;-80
2022/12/05 07:28:47;;;;;;;;;;;3.60;86.60;;;-151.14;100.00;62537.16;5114040;28;19920;-80
2022/12/05 07:31:17;;;;;;;;;;;3.60;86.50;;;-151.14;100.00;62537.16;5113413;28;19927;-80
2022/12/05 07:33:45;;;;;;;;;;;3.60;86.60;;;-151.14;100.00;62537.16;5113266;28;19926;-80
2022/12/05 07:36:14;;;;;;;;;;;3.60;86.80;;;-151.14;100.00;62537.16;5112162;28;19920;-80
2022/12/05 07:38:42;;;;;;;;;;;3.60;86.70;;;2.31;100.00;62537.16;5112396;28;19920;-80
2022/12/05 07:41:11;;;;;;;;;;;3.60;86.60;;;-151.14;100.00;62537.16;5112293;28;19933;-80
2022/12/05 07:43:39;;;;;;;;;;;3.60;86.60;;;-151.14;100.00;62537.16;5095275;28;19928;-80
2022/12/05 07:46:07;;;;;;;;;;;3.60;86.50;;;2.33;100.00;62537.16;5113139;28;19920;-80
2022/12/05 07:48:36;;;;;;;;;;;3.60;86.50;;;-151.14;100.00;62537.16;5112117;28;19942;-80
2022/12/05 07:51:05;;;;;;;;;;;3.60;86.50;;;-151.14;100.00;62537.16;5111874;28;20203;-80
2022/12/05 07:53:34;;;;;;;;;;;3.60;86.50;;;-151.14;100.00;62537.16;5111763;28;19919;-79
2022/12/05 07:56:03;;;;;;;;;;;3.70;86.60;;;2.34;100.00;62537.16;5112890;28;19920;-80
2022/12/05 07:58:31;;;;;;;;;;;3.70;86.60;;;2.32;100.00;62537.16;5113253;28;19920;-80
2022/12/05 08:01:06;;;;;;;;;;;3.70;86.60;;;-151.14;100.00;62537.16;5108405;28;19920;-80
2022/12/05 08:03:34;;;;;;;;;;;3.70;86.50;;;-151.14;100.00;62537.16;5074479;28;19920;-80
2022/12/05 08:06:04;;;;;;;;;;;3.70;86.50;;;-151.14;100.00;62537.16;5092434;28;19920;-80
2022/12/05 08:08:32;;;;;;;;;;;3.70;86.60;;;-151.14;100.00;62537.16;5092711;28;19926;-80
2022/12/05 08:11:03;;;;;;;;;;;3.70;86.60;;;-151.14;100.00;62537.16;5092624;28;20249;-80
2022/12/05 08:13:31;;;;;;;;;;;3.70;86.40;;;-151.14;100.00;62537.16;5074277;28;19920;-80
2022/12/05 08:16:02;;;;;;;;;;;3.70;86.20;;;-151.14;100.00;62537.16;5091072;28;19942;-80
2022/12/05 08:18:30;;;;;;;;;;;3.70;86.10;;;-151.14;100.00;62537.16;5091131;28;20116;-80
2022/12/05 08:21:03;;;;;;;;;;;3.80;86.10;;;-151.14;100.00;62537.16;5091102;28;19920;-80
2022/12/05 08:23:31;;;;;;;;;;;3.70;85.90;;;-151.14;100.00;62537.16;5073184;28;19981;-80
2022/12/05 08:26:02;;;;;;;;;;;3.80;86.00;;;-151.14;100.00;62537.16;5092156;28;19927;-79
2022/12/05 08:28:30;;;;;;;;;;;3.70;86.00;;;-151.14;100.00;62537.16;5108292;28;19927;-80
2022/12/05 08:31:03;;;;;;;;;;;3.70;85.90;;;-151.14;100.00;62537.16;5094168;28;19926;-80
2022/12/05 08:33:31;;;;;;;;;;;3.70;86.00;;;-151.14;100.00;62537.16;5112324;28;19919;-80
2022/12/05 08:36:01;;;;;;;;;;;3.70;85.90;;;-151.14;100.00;62537.16;5112240;28;19926;-79
2022/12/05 08:38:30;;;;;;;;;;;3.70;86.00;;;2.36;100.00;62537.16;5111607;28;19920;-80
2022/12/05 08:41:00;;;;;;;;;;;3.70;86.10;;;-151.14;100.00;62537.16;5111402;28;19927;-80
2022/12/05 08:43:28;;;;;;;;;;;3.70;86.00;;;-151.14;100.00;62537.16;5111137;28;19928;-80
2022/12/05 08:45:56;;;;;;;;;;;3.70;86.10;;;-151.14;100.00;62537.16;5112254;28;20097;-80
2022/12/05 08:48:24;;;;;;;;;;;3.70;86.10;;;2.31;100.00;62537.16;5094066;28;19928;-80
2022/12/05 08:50:52;;;;;;;;;;;3.70;86.10;;;-151.14;100.00;62537.16;5111425;28;20118;-80
2022/12/05 08:53:20;;;;;;;;;;;3.70;86.20;;;-151.14;100.00;62537.16;5094164;28;20238;-80
2022/12/05 08:55:50;;;;;;;;;;;3.70;86.30;;;-151.14;100.00;62537.16;5112112;28;19920;-80
2022/12/05 08:58:17;;;;;;;;;;;3.60;86.20;;;-151.14;100.00;62537.16;5112251;28;19919;-79
2022/12/05 09:00:45;;;;;;;;;;;3.60;86.20;;;-151.14;100.00;62537.16;5112130;28;19938;-80
2022/12/05 09:03:13;;;;;;;;;;;3.60;86.20;;;-151.14;100.00;62537.16;5110790;28;19920;-80
2022/12/05 09:05:41;;;;;;;;;;;3.60;86.20;;;-151.14;100.00;62537.16;5110613;28;19920;-80
2022/12/05 09:08:09;;;;;;;;;;;3.60;86.20;;;-151.14;100.00;62537.16;5112021;28;20230;-80
2022/12/05 09:10:37;;;;;;;;;;;3.60;86.20;;;18.09;100.00;62537.16;5110788;28;19920;-80
2022/12/05 09:13:06;;;;;;;;;;;3.60;86.20;;;-151.14;100.00;62537.16;5110802;28;19926;-80
2022/12/05 09:15:34;;;;;;;;;;;3.60;86.20;;;-151.14;100.00;62537.16;5110490;28;19919;-80
2022/12/05 09:18:02;;;;;;;;;;;3.60;86.20;;;-151.14;100.00;62537.16;5110436;28;19920;-80
2022/12/05 09:20:30;;;;;;;;;;;3.60;86.30;;;-151.14;100.00;62537.16;5110282;28;19931;-80
2022/12/05 09:22:58;;;;;;;;;;;3.60;86.20;;;-151.14;100.00;62537.16;5093805;28;19949;-80
2022/12/05 09:25:26;;;;;;;;;;;3.60;86.20;;;-151.14;100.00;62537.16;5111347;28;19919;-80
2022/12/05 09:27:55;;;;;;;;;;;3.60;86.20;;;-151.14;100.00;62537.16;5110384;28;19926;-80
2022/12/05 09:30:24;;;;;;;;;;;3.60;86.20;;;-151.14;100.00;62537.16;5093351;28;19920;-80
2022/12/05 09:32:52;;;;;;;;;;;3.60;86.20;;;-151.14;100.00;62537.16;5111743;28;19935;-80
2022/12/05 09:35:20;;;;;;;;;;;3.60;86.20;;;-151.14;100.00;62537.16;5109503;28;19920;-80
2022/12/05 09:37:48;;;;;;;;;;;3.60;86.30;;;-151.14;100.00;62537.16;5110513;28;19926;-80
2022/12/05 09:40:17;;;;;;;;;;;3.60;86.20;;;-151.14;100.00;62537.16;5110047;28;19920;-80
2022/12/05 09:42:53;;;;;;;;;;;3.60;86.20;;;-151.14;100.00;62537.16;5111295;28;20218;-80
2022/12/05 09:45:25;;;;;;;;;;;3.60;86.20;;;2.25;100.00;62537.16;5111151;28;20234;-80
2022/12/05 09:47:56;;;;;;;;;;;3.60;86.20;;;-151.14;100.00;62537.16;5110039;28;19926;-80
2022/12/05 09:50:25;;;;;;;;;;;3.60;86.20;;;2.26;100.00;62537.16;5111499;28;19926;-80
2022/12/05 09:53:12;;;;;;;;;;;3.60;86.20;;;-151.14;100.00;62537.16;5093446;28;19934;-80
2022/12/05 09:55:44;;;;;;;;;;;3.60;86.10;;;2.25;100.00;62537.16;5109936;28;19920;-80
2022/12/05 09:58:27;;;;;;;;;;;3.60;86.10;;;-151.14;100.00;62537.16;5122596;28;19926;-80
2022/12/05 10:01:00;;;;;;;;;;;3.60;86.10;;;2.25;100.00;62537.16;5109883;28;19920;-81
2022/12/05 10:03:31;;;;;;;;;;;3.60;86.40;;;2.24;100.00;62537.16;5111056;28;19934;-81
2022/12/05 10:06:06;;;;;;;;;;;3.60;86.20;;;-151.14;100.00;62537.16;5109500;28;19919;-80
2022/12/05 10:08:38;;;;;;;;;;;3.60;86.20;;;2.25;100.00;62537.16;5110124;28;19926;-81
2022/12/05 10:11:11;;;;;;;;;;;3.60;86.20;;;2.25;100.00;62537.16;5127179;28;19942;-81
2022/12/05 10:13:45;;;;;;;;;;;3.60;86.20;;;-151.14;100.00;62537.16;5109599;28;19942;-81
2022/12/05 10:16:18;;;;;;;;;;;3.60;86.10;;;-151.14;100.00;62537.16;5110985;28;19920;-80
2022/12/05 10:18:47;;;;;;;;;;;3.60;86.10;;;-151.14;100.00;62537.16;5092950;28;20115;-81
2022/12/05 10:21:17;;;;;;;;;;;3.60;86.10;;;-151.14;100.00;62537.16;5111164;28;20367;-81
2022/12/05 10:23:51;;;;;;;;;;;3.60;86.20;;;-151.14;100.00;62537.16;5109640;28;19926;-81
2022/12/05 10:26:19;;;;;;;;;;;3.70;86.30;;;-151.14;100.00;62537.16;5109737;28;19920;-81
2022/12/05 10:28:50;;;;;;;;;;;3.70;86.10;;;-151.14;100.00;62537.16;5110872;28;19934;-80
2022/12/05 10:31:21;;;;;;;;;;;3.70;85.90;;;-151.14;100.00;62537.16;5109885;28;19926;-81
2022/12/05 10:33:51;;;;;;;;;;;3.80;85.80;;;-151.14;100.00;62537.16;5109387;28;20109;-81
2022/12/05 10:36:19;;;;;;;;;;;3.80;85.80;;;-151.14;100.00;62537.16;5110745;28;19942;-81
2022/12/05 10:38:49;;;;;;;;;;;3.80;85.60;;;-151.14;100.00;62537.16;5121163;28;20109;-81
2022/12/05 10:41:17;;;;;;;;;;;3.90;85.50;;;-151.14;100.00;62537.16;5109566;28;19920;-80
2022/12/05 10:43:45;;;;;;;;;;;3.90;85.50;;;-151.14;100.00;62537.16;5078905;28;19920;-81
2022/12/05 10:46:13;;;;;;;;;;;3.90;85.50;;;-151.14;100.00;62537.16;5088952;28;19926;-81
2022/12/05 10:48:42;;;;;;;;;;;3.90;85.50;;;-151.14;100.00;62537.16;5105401;28;20093;-81
2022/12/05 10:51:14;;;;;;;;;;;3.90;85.30;;;-151.14;100.00;62537.16;5114300;28;20111;-81
2022/12/05 10:53:43;;;;;;;;;;;3.90;85.40;;;-151.14;100.00;62537.16;5109312;28;19926;-81
2022/12/05 10:56:36;;;;;;;;;;;3.90;85.40;;;-151.14;100.00;62537.16;5092488;28;19920;-80
2022/12/05 10:59:05;;;;;;;;;;;3.90;85.30;;;-151.14;100.00;62537.16;5090047;28;20115;-80
2022/12/05 11:01:33;;;;;;;;;;;3.90;85.30;;;-151.14;100.00;62537.16;5112653;28;19920;-81
2022/12/05 11:04:05;;;;;;;;;;;3.90;85.30;;;-151.14;100.00;62537.16;5112623;28;20213;-80
2022/12/05 11:06:33;;;;;;;;;;;3.90;85.30;;;-151.14;100.00;62537.16;5095590;28;19942;-80
2022/12/05 11:09:04;;;;;;;;;;;3.90;85.30;;;2.54;100.00;62537.16;5113073;28;19920;-80
2022/12/05 11:11:32;;;;;;;;;;;3.90;85.20;;;-151.14;100.00;62537.16;5113579;28;19933;-80
2022/12/05 11:14:01;;;;;;;;;;;3.90;85.20;;;-151.14;100.00;62537.16;5113494;28;19920;-80
2022/12/05 11:16:31;;;;;;;;;;;3.90;85.20;;;-151.14;100.00;62537.16;5112252;28;19926;-81
2022/12/05 11:19:18;;;;;;;;;;;3.90;85.20;;;2.60;100.00;62537.16;5113783;28;19926;-81
2022/12/05 11:21:46;;;;;;;;;;;4.00;85.10;;;-151.14;100.00;62537.16;5112842;28;19919;-80
2022/12/05 11:24:21;;;;;;;;;;;4.00;85.10;;;-151.14;100.00;62537.16;5112238;28;19933;-80